createdAt,value
2023-02-02T00:01:34.930Z,11.45
2023-02-02T00:06:37.190Z,9.15
2023-02-02T00:11:39.561Z,7.20
2023-02-02T00:16:49.485Z,6.50
2023-02-02T00:21:51.660Z,6.93
2023-02-02T00:26:58.196Z,6.78
2023-02-02T00:32:00.354Z,8.73
2023-02-02T00:37:02.688Z,5.95
2023-02-02T00:42:05.033Z,6.53
2023-02-02T00:47:07.243Z,6.35
2023-02-02T00:52:09.519Z,8.30
2023-02-02T00:57:15.515Z,8.20
2023-02-02T01:02:17.659Z,6.22
2023-02-02T01:07:19.813Z,7.15
2023-02-02T01:12:22.064Z,7.35
2023-02-02T01:17:24.304Z,7.38
2023-02-02T01:22:26.621Z,8.48
2023-02-02T01:27:28.789Z,9.18
2023-02-02T01:32:30.951Z,9.48
2023-02-02T01:37:33.165Z,7.40
2023-02-02T01:42:35.297Z,6.90
2023-02-02T01:47:44.029Z,6.32
2023-02-02T01:52:49.898Z,6.43
2023-02-02T01:58:07.184Z,5.07
2023-02-02T02:03:14.414Z,5.55
2023-02-02T02:08:22.273Z,7.30
2023-02-02T02:13:46.626Z,6.38
2023-02-02T02:18:48.704Z,7.40
2023-02-02T02:24:33.811Z,7.18
2023-02-02T02:30:24.460Z,7.15
2023-02-02T02:35:35.443Z,7.78
2023-02-02T02:40:40.529Z,5.82
2023-02-02T02:45:44.970Z,4.97
2023-02-02T02:50:47.060Z,7.93
2023-02-02T02:56:05.211Z,4.75
2023-02-02T03:01:16.229Z,4.20
2023-02-02T03:06:21.352Z,4.28
2023-02-02T03:11:23.556Z,2.65
2023-02-02T03:16:25.749Z,2.60
2023-02-02T03:21:27.909Z,2.70
2023-02-02T03:26:30.191Z,2.90
2023-02-02T03:31:32.439Z,2.45
2023-02-02T03:36:34.635Z,2.85
2023-02-02T03:41:36.813Z,2.90
2023-02-02T03:46:38.981Z,3.00
2023-02-02T03:51:41.185Z,3.13
2023-02-02T03:56:43.361Z,3.72
2023-02-02T04:01:45.478Z,4.38
2023-02-02T04:06:47.643Z,3.58
2023-02-02T04:11:49.812Z,3.60
2023-02-02T04:16:52.126Z,3.80
2023-02-02T04:21:54.638Z,4.30
2023-02-02T04:26:56.728Z,5.15
2023-02-02T04:31:58.859Z,4.80
2023-02-02T04:37:01.362Z,5.18
2023-02-02T04:42:03.988Z,6.28
2023-02-02T04:47:06.138Z,5.72
2023-02-02T04:52:08.458Z,8.07
2023-02-02T04:57:10.615Z,6.85
2023-02-02T05:02:12.721Z,11.00
2023-02-02T05:07:14.840Z,11.05
2023-02-02T05:12:16.985Z,10.88
2023-02-02T05:17:19.281Z,11.10
2023-02-02T05:22:21.456Z,9.15
2023-02-02T05:27:23.589Z,7.68
2023-02-02T05:32:26.069Z,9.00
2023-02-02T05:37:28.206Z,10.23
2023-02-02T05:42:30.374Z,10.05
2023-02-02T05:47:32.567Z,12.18
2023-02-02T05:52:36.128Z,12.43
2023-02-02T05:57:38.289Z,14.15
2023-02-02T06:02:40.546Z,12.02
2023-02-02T06:07:42.657Z,16.60
2023-02-02T06:12:44.866Z,13.63
2023-02-02T06:17:47.046Z,15.25
2023-02-02T06:22:49.207Z,11.68
2023-02-02T06:27:55.289Z,9.18
2023-02-02T06:32:59.810Z,9.60
2023-02-02T06:38:02.150Z,10.15
2023-02-02T06:43:04.741Z,11.65
2023-02-02T06:48:11.153Z,11.05
2023-02-02T06:53:13.205Z,11.38
2023-02-02T06:58:15.327Z,9.98
2023-02-02T07:03:18.159Z,11.55
2023-02-02T07:08:20.663Z,10.20
2023-02-02T07:13:22.825Z,9.57
2023-02-02T07:18:25.054Z,11.40
2023-02-02T07:23:30.308Z,9.50
2023-02-02T07:28:32.695Z,10.18
2023-02-02T07:33:39.012Z,10.07
2023-02-02T07:38:41.215Z,9.45
2023-02-02T07:43:43.802Z,11.27
2023-02-02T07:48:46.209Z,10.95
2023-02-02T07:53:50.803Z,9.88
2023-02-02T07:58:55.151Z,9.52
2023-02-02T08:04:00.767Z,10.38
2023-02-02T08:09:08.125Z,12.18
2023-02-02T08:14:14.467Z,12.52
2023-02-02T08:19:17.502Z,11.90
2023-02-02T08:24:19.656Z,11.73
2023-02-02T08:29:21.801Z,11.27
2023-02-02T08:34:23.964Z,6.63
2023-02-02T08:39:26.217Z,4.95
2023-02-02T08:44:28.498Z,5.68
2023-02-02T08:49:50.562Z,5.53
2023-02-02T08:54:52.711Z,5.63
2023-02-02T08:59:54.922Z,5.05
2023-02-02T09:04:57.105Z,5.68
2023-02-02T09:09:59.194Z,5.97
2023-02-02T09:15:01.407Z,6.47
2023-02-02T09:20:03.875Z,5.10
2023-02-02T09:25:06.431Z,8.45
2023-02-02T09:30:09.740Z,9.38
2023-02-02T09:35:11.955Z,10.57
2023-02-02T09:40:19.477Z,6.50
2023-02-02T09:45:39.656Z,8.23
2023-02-02T09:50:53.901Z,6.75
2023-02-02T09:56:01.476Z,5.47
2023-02-02T10:01:27.260Z,7.00
2023-02-02T10:06:35.483Z,6.72
2023-02-02T10:12:19.326Z,5.85
2023-02-02T10:17:21.341Z,4.45
2023-02-02T10:22:28.464Z,3.38
2023-02-02T10:27:41.267Z,3.53
2023-02-02T10:33:10.614Z,3.08
2023-02-02T10:38:36.728Z,3.67
2023-02-02T10:44:07.985Z,2.67
2023-02-02T10:49:22.420Z,3.22
2023-02-02T10:54:56.521Z,3.05
2023-02-02T11:00:06.328Z,1.83
2023-02-02T11:05:35.895Z,2.28
2023-02-02T11:10:38.240Z,1.92
2023-02-02T11:15:40.377Z,1.80
2023-02-02T11:20:42.874Z,2.03
2023-02-02T11:25:45.369Z,2.05
2023-02-02T11:30:52.903Z,2.00
2023-02-02T11:35:58.706Z,1.85
2023-02-02T11:41:11.461Z,2.22
2023-02-02T11:46:24.881Z,2.35
2023-02-02T11:51:29.864Z,2.15
2023-02-02T11:56:33.144Z,2.00
2023-02-02T12:01:41.665Z,2.00
2023-02-02T12:06:44.540Z,2.22
2023-02-02T12:12:08.561Z,2.33
2023-02-02T12:17:28.178Z,2.13
2023-02-02T12:22:33.100Z,2.30
2023-02-02T12:27:52.258Z,2.13
2023-02-02T12:33:36.133Z,2.20
2023-02-02T12:39:09.116Z,2.00
2023-02-02T12:44:14.142Z,2.20
2023-02-02T12:50:03.272Z,2.08
2023-02-02T12:55:31.612Z,2.28
2023-02-02T13:00:48.812Z,2.38
2023-02-02T13:06:36.821Z,2.10
2023-02-02T13:11:46.147Z,2.42
2023-02-02T13:16:53.722Z,1.80
2023-02-02T13:22:00.724Z,2.05
2023-02-02T13:27:06.517Z,1.92
2023-02-02T13:32:21.420Z,1.70
2023-02-02T13:37:33.363Z,2.08
2023-02-02T13:43:13.160Z,1.92
2023-02-02T13:48:31.831Z,2.60
2023-02-02T13:53:40.116Z,2.50
2023-02-02T13:59:12.743Z,1.48
2023-02-02T14:04:25.827Z,2.50
2023-02-02T14:09:36.473Z,2.83
2023-02-02T14:14:46.421Z,2.28
2023-02-02T14:19:54.639Z,2.20
2023-02-02T14:24:57.513Z,2.45
2023-02-02T14:30:00.760Z,3.03
2023-02-02T14:35:11.589Z,4.32
2023-02-02T14:40:16.723Z,4.47
2023-02-02T14:45:36.948Z,3.60
2023-02-02T14:56:03.414Z,3.25
2023-02-02T15:01:26.203Z,2.63
2023-02-02T15:06:40.896Z,2.42
2023-02-02T15:12:07.065Z,1.90
2023-02-02T15:17:25.325Z,1.88
2023-02-02T15:22:37.488Z,2.80
2023-02-02T15:27:48.103Z,2.97
2023-02-02T15:32:57.806Z,2.15
2023-02-02T15:38:05.038Z,2.67
2023-02-02T15:43:11.473Z,3.20
2023-02-02T15:48:30.715Z,2.80
2023-02-02T15:53:46.267Z,3.92
2023-02-02T15:58:51.145Z,3.40
2023-02-02T16:04:08.635Z,3.75
2023-02-02T16:09:22.911Z,2.95
2023-02-02T16:14:25.212Z,3.03
2023-02-02T16:19:27.448Z,2.40
2023-02-02T16:24:33.406Z,2.67
2023-02-02T16:29:36.121Z,2.42
2023-02-02T16:34:41.212Z,6.30
2023-02-02T16:39:43.548Z,7.38
2023-02-02T16:44:45.607Z,6.70
2023-02-02T16:49:47.806Z,5.88
2023-02-02T16:54:55.972Z,6.88
2023-02-02T17:00:02.272Z,5.15
2023-02-02T17:05:23.561Z,5.63
2023-02-02T17:10:32.444Z,6.82
2023-02-02T17:15:37.018Z,6.28
2023-02-02T17:20:41.050Z,5.82
2023-02-02T17:25:44.186Z,6.68
2023-02-02T17:30:50.262Z,7.47
2023-02-02T17:35:56.306Z,7.30
2023-02-02T17:41:03.731Z,6.35
2023-02-02T17:46:06.278Z,9.35
2023-02-02T17:51:15.607Z,10.10
2023-02-02T17:56:18.668Z,5.13
2023-02-02T18:01:20.885Z,4.53
2023-02-02T18:06:22.989Z,3.67
2023-02-02T18:11:25.276Z,4.60
2023-02-02T18:16:27.438Z,4.53
2023-02-02T18:21:30.298Z,4.22
2023-02-02T18:26:34.852Z,4.93
2023-02-02T18:31:37.238Z,8.60
2023-02-02T18:36:40.724Z,10.52
2023-02-02T18:41:42.832Z,12.13
2023-02-02T18:46:45.034Z,12.73
2023-02-02T18:51:48.223Z,12.63
2023-02-02T18:56:50.603Z,25.42
2023-02-02T19:01:52.675Z,25.75
2023-02-02T19:07:13.481Z,35.53
2023-02-02T19:12:16.075Z,29.00
2023-02-02T19:17:22.607Z,20.58
2023-02-02T19:22:30.693Z,20.45
2023-02-02T19:27:32.806Z,7.18
2023-02-02T19:32:35.378Z,5.90
2023-02-02T19:37:40.266Z,4.20
2023-02-02T19:42:50.372Z,5.07
2023-02-02T19:47:56.156Z,9.32
2023-02-02T19:52:58.295Z,7.78
2023-02-02T19:58:18.216Z,14.13
2023-02-02T20:03:43.270Z,18.80
2023-02-02T20:08:45.509Z,30.70
2023-02-02T20:13:49.021Z,22.13
2023-02-02T20:18:54.477Z,12.20
2023-02-02T20:23:56.672Z,8.13
2023-02-02T20:29:01.214Z,8.13
2023-02-02T20:34:20.715Z,7.47
2023-02-02T20:39:37.289Z,3.75
2023-02-02T20:44:39.452Z,2.88
2023-02-02T20:49:41.739Z,1.80
2023-02-02T20:54:43.816Z,2.90
2023-02-02T20:59:45.989Z,3.50
2023-02-02T21:04:48.579Z,5.53
2023-02-02T21:09:51.718Z,4.95
2023-02-02T21:14:54.710Z,2.95
2023-02-02T21:19:56.947Z,3.40
2023-02-02T21:24:59.124Z,3.83
2023-02-02T21:30:01.242Z,5.57
2023-02-02T21:35:04.995Z,4.05
2023-02-02T21:40:28.101Z,5.70
2023-02-02T21:45:36.196Z,4.72
2023-02-02T21:50:41.965Z,2.97
2023-02-02T21:55:52.647Z,3.83
2023-02-02T22:01:00.511Z,3.40
2023-02-02T22:06:29.397Z,6.07
2023-02-02T22:11:44.648Z,3.92
2023-02-02T22:16:50.570Z,5.80
2023-02-02T22:21:54.479Z,5.03
2023-02-02T22:26:59.243Z,4.65
2023-02-02T22:32:02.117Z,2.55
2023-02-02T22:37:04.249Z,2.10
2023-02-02T22:42:06.400Z,1.92
2023-02-02T22:47:08.464Z,2.20
2023-02-02T22:52:10.639Z,2.00
2023-02-02T22:57:12.893Z,1.85
2023-02-02T23:02:15.031Z,2.20
2023-02-02T23:07:17.247Z,2.58
2023-02-02T23:12:19.345Z,3.05
2023-02-02T23:17:21.461Z,2.70
2023-02-02T23:22:23.605Z,2.42
2023-02-02T23:27:26.341Z,2.60
2023-02-02T23:32:28.516Z,2.95
2023-02-02T23:37:30.865Z,2.83
2023-02-02T23:42:33.960Z,3.45
2023-02-02T23:47:36.475Z,2.58
2023-02-02T23:52:39.634Z,3.05
2023-02-02T23:57:41.789Z,2.30
